Seneca, South Carolina
Current Conditions -  °F | °C
As of 7:54 PM on Saturday 22 Nov 2014 (Local Time) from KCEU Reporting Station
Broken Clouds Broken Clouds  
Wind Chill: 50°   Ceiling: 4100
Heat Index: 50°   Visibility: 10mi
Dew Point: 24°   Wind: 0mph
Humidity: 36%   Direction: NA
Pressure: 30.34"   Gusts: NA
Location:  34.69°N, 82.95°W
Report Text: KCEU 230054Z AUTO 00000KT 10SM BKN041 BKN060 10/M04 A3034 RMK AO2 SLP275 T01001044
Loading
Personal Weather Stations






























Interactive Weather Map New forecast layout! Learn more

10-Day Weather Forecast

Advertisements
Track Severe Weather on mobile